Agate Beach, Washington
Current Conditions -  °F | °C
As of 12:37 PM on Tuesday 25 Nov 2014 (Local Time) from KCLM Reporting Station
Light Rain Light Rain  
Wind Chill: 43°   Ceiling: 900
Heat Index: 47°   Visibility: 3mi
Dew Point: 44°   Wind: 8mph
Humidity: 90%   Direction: 100°E
Pressure: 30.21"   Gusts: NA
Location:  48.1359°N, 123.734°W
Report Text: KCLM 252037Z AUTO 10007KT 3SM -RA BR SCT004 BKN009 OVC016 08/07 A3021 RMK AO2 RAB11 P0002 T00830067
Loading
Personal Weather Stations






























Interactive Weather Map New forecast layout! Learn more

10-Day Weather Forecast

Advertisements
Track Severe Weather on mobile